SBFZ - SBBE

Guest
Details From SBFZ - Pinto Martins
To SBBE - Val De Caes Intl
Flight Number -
Tags decoded
Created
Modified
Stats Distance 614 nm / 1,137 km
Max Altitude 0 ft / 0 m
Waypoints 3
Social Downloads 2
Likes 0
Share VATSIM

Download

Looking for another format? Having issues loading an existing format? Contact us
Advertisement - Login to hide

Notes

Requested: SBFZ UW33 JANES BE393 SBBE Unmatched points: UW33 BE393

Route

SBFZ JANES SBBE

ID Type Via Altitude Latitude Longitude Leg Dist Tot Dist Heading (true) Name
O SBFZ APT - 0 ft / 0 m -3.77628˚ -38.53256˚ - 0 nm - Pinto Martins
JANES FIX - 0 ft / 0 m -1.56750˚ -47.83817˚ 573 nm 573 nm 283° / 284° -
O SBBE APT - 0 ft / 0 m -1.38078˚ -48.47619˚ 39 nm 613 nm 286° / 286° Val De Caes Intl

Altitude Profile

Weather

Temperature
Clouds and Precipitation
Forecast for 2016-12-10 12:00 UTC. Updated an hour ago
Winds

SBFZ

Details ICAO SBFZ (FOR)
Name Pinto Martins
Region Brazil
Timezone America/Fortaleza (UTC-3.0)
Stats Elevation 82 ft / 25 m (AMSL)
Location -3.776283° -38.532556°
Runways 1
Magnetic Variation 21.163° W

METAR

SBFZ 101200Z 09014KT 9999 BKN025 29/22 Q1012

Decode

TAF

TAF SBFZ 101000Z 1012/1112 08012KT 9999 BKN025 TX31/1015Z TN27/1107Z BECMG 1014/1016 SCT025 BECMG 1019/1021 07008KT RMK PCH

Decode

Departure Runways

ID Width Length Bearing (true) Bearing (mag) Surface Threshold Offset Overrun Length
13 148 ft / 45 m 8,360 ft / 2,548 m 104.88° 126.04° Asphalt 0 ft / 0 m 195 ft / 59 m
31 148 ft / 45 m 8,360 ft / 2,548 m 284.88° 306.04° Asphalt 0 ft / 0 m 125 ft / 38 m

SBBE

Details ICAO SBBE (BEL)
Name Val De Caes Intl
Region Brazil
Timezone America/Belem (UTC-3.0)
Stats Elevation 54 ft / 16 m (AMSL)
Location -1.380776° -48.476189°
Runways 2
Magnetic Variation 20.121° W

METAR

SBBE 101200Z 07009KT 9999 FEW020 28/24 Q1012

Decode

TAF

TAF SBBE 101000Z 1012/1112 09010KT 9999 SCT020 TX31/1016Z TN24/1106Z BECMG 1016/1018 36008KT SCT030 FEW035TCU PROB30 TEMPO 1018/1021 4000 SHRA BECMG 1022/1024 05008KT CAVOK RMK PEH

Decode

Destination Runways

ID Width Length Bearing (true) Bearing (mag) Surface Threshold Offset Overrun Length
02 148 ft / 45 m 6,023 ft / 1,836 m 4.48° 24.60° Asphalt 0 ft / 0 m 194 ft / 59 m
06 148 ft / 45 m 9,215 ft / 2,809 m 45.30° 65.42° Asphalt 0 ft / 0 m 0 ft / 0 m
20 148 ft / 45 m 6,023 ft / 1,836 m 184.48° 204.60° Asphalt 0 ft / 0 m 194 ft / 59 m
24 148 ft / 45 m 9,215 ft / 2,809 m 225.30° 245.42° Asphalt 0 ft / 0 m 197 ft / 60 m

Approach Navaids

Runway Type Ident Frequency Range Bearing (true) Bearing (mag) Slope Elevation
06 Localiser IBE 109.30 MHz 18 nm / 33 km 45.72° 65.84° - 48 ft / 15 m (AMSL)
06 Glidescope IBE 109.30 MHz 10 nm / 19 km 45.30° 65.42° 3.00° 48 ft / 15 m (AMSL)
06 DME IBE 109.30 MHz 18 nm / 33 km - - - 48 ft / 15 m (AMSL)

Popular Alternatives